createdAt,value
2022-07-25T00:01:10.835Z,17.59
2022-07-25T00:03:37.235Z,17.58
2022-07-25T00:06:05.675Z,17.45
2022-07-25T00:08:32.050Z,17.40
2022-07-25T00:10:58.577Z,17.46
2022-07-25T00:13:24.946Z,17.31
2022-07-25T00:15:51.430Z,17.26
2022-07-25T00:18:17.850Z,17.23
2022-07-25T00:20:44.284Z,17.28
2022-07-25T00:23:10.669Z,17.25
2022-07-25T00:25:37.340Z,17.31
2022-07-25T00:28:03.900Z,17.22
2022-07-25T00:30:30.283Z,17.22
2022-07-25T00:32:56.723Z,17.31
2022-07-25T00:35:23.135Z,17.38
2022-07-25T00:37:49.504Z,17.34
2022-07-25T00:40:15.891Z,17.36
2022-07-25T00:42:42.286Z,17.43
2022-07-25T00:45:08.924Z,17.38
2022-07-25T00:47:35.288Z,17.37
2022-07-25T00:50:01.748Z,17.36
2022-07-25T00:52:28.131Z,17.35
2022-07-25T00:54:56.713Z,17.35
2022-07-25T00:57:23.113Z,17.39
2022-07-25T00:59:49.652Z,17.47
2022-07-25T01:02:16.080Z,17.53
2022-07-25T01:04:42.440Z,17.72
2022-07-25T01:07:08.790Z,17.80
2022-07-25T01:09:35.447Z,17.87
2022-07-25T01:12:01.812Z,18.10
2022-07-25T01:14:28.182Z,18.31
2022-07-25T01:16:54.678Z,18.31
2022-07-25T01:19:21.046Z,18.36
2022-07-25T01:21:47.441Z,18.33
2022-07-25T01:24:13.812Z,18.39
2022-07-25T01:26:40.200Z,18.37
2022-07-25T01:29:06.586Z,18.24
2022-07-25T01:31:33.016Z,18.15
2022-07-25T01:33:59.426Z,18.04
2022-07-25T01:36:25.819Z,17.88
2022-07-25T01:38:54.170Z,17.77
2022-07-25T01:41:22.345Z,17.88
2022-07-25T01:43:49.124Z,17.94
2022-07-25T01:46:15.577Z,17.96
2022-07-25T01:48:42.055Z,18.04
2022-07-25T01:51:10.428Z,18.00
2022-07-25T01:53:37.490Z,17.93
2022-07-25T01:56:08.273Z,17.99
2022-07-25T01:58:36.850Z,17.89
2022-07-25T02:01:03.563Z,17.93
2022-07-25T02:03:29.981Z,17.96
2022-07-25T02:05:57.099Z,17.97
2022-07-25T02:08:23.633Z,17.94
2022-07-25T02:10:50.033Z,17.95
2022-07-25T02:13:16.470Z,18.22
2022-07-25T02:15:42.892Z,18.50
2022-07-25T02:18:09.264Z,18.87
2022-07-25T02:20:35.692Z,18.80
2022-07-25T02:23:02.739Z,18.94
2022-07-25T02:25:29.120Z,19.10
2022-07-25T02:27:55.488Z,19.11
2022-07-25T02:30:22.709Z,19.16
2022-07-25T02:32:49.059Z,19.33
2022-07-25T02:35:15.459Z,19.42
2022-07-25T02:37:41.829Z,19.62
2022-07-25T02:40:08.470Z,19.61
2022-07-25T02:42:34.834Z,19.53
2022-07-25T02:45:01.418Z,19.51
2022-07-25T02:47:27.845Z,19.60
2022-07-25T02:49:54.476Z,19.65
2022-07-25T02:52:20.839Z,19.62
2022-07-25T02:54:47.215Z,19.66
2022-07-25T02:57:13.565Z,19.73
2022-07-25T02:59:39.942Z,19.72
2022-07-25T03:02:06.296Z,19.87
2022-07-25T03:04:33.454Z,19.73
2022-07-25T03:06:59.945Z,19.69
2022-07-25T03:09:26.315Z,19.66
2022-07-25T03:11:52.745Z,19.67
2022-07-25T03:14:19.172Z,19.69
2022-07-25T03:16:45.885Z,19.60
2022-07-25T03:19:13.614Z,19.45
2022-07-25T03:21:40.108Z,19.40
2022-07-25T03:24:06.990Z,19.47
2022-07-25T03:26:33.579Z,19.41
2022-07-25T03:28:59.937Z,19.33
2022-07-25T03:31:26.367Z,19.38
2022-07-25T03:33:52.742Z,19.21
2022-07-25T03:36:19.527Z,19.43
2022-07-25T03:38:45.931Z,19.43
2022-07-25T03:41:12.529Z,19.38
2022-07-25T03:43:38.935Z,19.40
2022-07-25T03:46:05.326Z,19.44
2022-07-25T03:48:31.775Z,19.52
2022-07-25T03:51:00.254Z,19.57
2022-07-25T03:53:28.616Z,19.61
2022-07-25T03:55:54.988Z,19.55
2022-07-25T03:58:21.355Z,19.64
2022-07-25T04:00:48.755Z,19.71
2022-07-25T04:03:15.197Z,19.74
2022-07-25T04:05:47.015Z,19.78
2022-07-25T04:08:14.241Z,19.90
2022-07-25T04:10:40.614Z,19.95
2022-07-25T04:13:07.140Z,19.88
2022-07-25T04:15:33.762Z,19.98
2022-07-25T04:18:00.159Z,20.05
2022-07-25T04:20:27.240Z,19.97
2022-07-25T04:22:53.618Z,20.04
2022-07-25T04:25:19.998Z,20.09
2022-07-25T04:27:46.417Z,20.09
2022-07-25T04:30:13.132Z,20.07
2022-07-25T04:32:50.608Z,20.35
2022-07-25T04:35:16.953Z,20.30
2022-07-25T04:37:43.332Z,20.24
2022-07-25T04:40:11.319Z,20.16
2022-07-25T04:42:37.682Z,20.07
2022-07-25T04:45:04.617Z,20.02
2022-07-25T04:47:31.006Z,20.03
2022-07-25T04:49:57.468Z,20.29
2022-07-25T04:52:23.829Z,20.17
2022-07-25T04:54:50.234Z,20.26
2022-07-25T04:57:16.659Z,20.30
2022-07-25T04:59:44.245Z,20.30
2022-07-25T05:02:10.789Z,20.35
2022-07-25T05:04:44.835Z,20.33
2022-07-25T05:07:11.686Z,20.40
2022-07-25T05:09:38.170Z,20.49
2022-07-25T05:12:04.597Z,20.69
2022-07-25T05:14:31.037Z,20.82
2022-07-25T05:16:57.447Z,21.03
2022-07-25T05:19:23.939Z,20.94
2022-07-25T05:21:50.310Z,21.01
2022-07-25T05:24:16.648Z,21.04
2022-07-25T05:26:43.082Z,21.37
2022-07-25T05:29:10.281Z,21.36
2022-07-25T05:31:36.869Z,21.27
2022-07-25T05:34:05.331Z,21.25
2022-07-25T05:36:31.925Z,21.33
2022-07-25T05:38:58.304Z,21.51
2022-07-25T05:41:24.684Z,21.64
2022-07-25T05:43:51.160Z,21.54
2022-07-25T05:46:17.654Z,21.70
2022-07-25T05:48:44.525Z,21.90
2022-07-25T05:51:12.497Z,22.10
2022-07-25T05:53:38.867Z,22.30
2022-07-25T05:56:05.395Z,22.35
2022-07-25T05:58:31.784Z,22.14
2022-07-25T06:00:58.347Z,22.08
2022-07-25T06:03:24.841Z,22.15
2022-07-25T06:05:51.251Z,22.10
2022-07-25T06:08:17.614Z,22.24
2022-07-25T06:10:43.979Z,22.33
2022-07-25T06:13:11.822Z,22.66
2022-07-25T06:15:38.266Z,22.63
2022-07-25T06:18:04.686Z,22.51
2022-07-25T06:20:31.093Z,22.68
2022-07-25T06:22:57.473Z,23.01
2022-07-25T06:25:24.363Z,23.12
2022-07-25T06:27:50.764Z,23.31
2022-07-25T06:30:20.012Z,23.37
2022-07-25T06:32:47.566Z,23.25
2022-07-25T06:35:14.107Z,23.37
2022-07-25T06:37:40.549Z,23.81
2022-07-25T06:40:07.384Z,23.60
2022-07-25T06:42:37.470Z,23.88
2022-07-25T06:45:05.035Z,24.13
2022-07-25T06:47:35.779Z,24.37
2022-07-25T06:50:02.609Z,24.41
2022-07-25T06:52:29.009Z,24.43
2022-07-25T06:54:55.391Z,24.39
2022-07-25T06:57:21.786Z,24.32
2022-07-25T06:59:48.156Z,24.38
2022-07-25T07:02:14.784Z,24.51
2022-07-25T07:04:41.256Z,24.73
2022-07-25T07:07:07.615Z,24.78
2022-07-25T07:09:34.257Z,24.87
2022-07-25T07:12:00.609Z,25.08
2022-07-25T07:14:27.156Z,25.05
2022-07-25T07:16:53.536Z,25.09
2022-07-25T07:19:19.908Z,25.07
2022-07-25T07:21:46.479Z,25.27
2022-07-25T07:24:24.107Z,25.10
2022-07-25T07:26:51.510Z,25.41
2022-07-25T07:29:17.887Z,25.71
2022-07-25T07:31:46.361Z,25.61
2022-07-25T07:34:14.533Z,25.73
2022-07-25T07:36:43.110Z,25.77
2022-07-25T07:39:09.670Z,25.52
2022-07-25T07:41:36.225Z,25.56
2022-07-25T07:44:02.627Z,25.43
2022-07-25T07:46:29.105Z,25.19
2022-07-25T07:48:55.638Z,25.17
2022-07-25T07:51:22.215Z,25.14
2022-07-25T07:54:07.077Z,24.99
2022-07-25T07:56:33.424Z,25.03
2022-07-25T07:58:59.837Z,25.25
2022-07-25T08:01:26.979Z,25.34
2022-07-25T08:03:53.416Z,25.79
2022-07-25T08:06:19.801Z,25.99
2022-07-25T08:08:46.163Z,25.99
2022-07-25T08:11:12.690Z,26.31
2022-07-25T08:13:39.159Z,26.39
2022-07-25T08:16:06.820Z,26.65
2022-07-25T08:18:33.539Z,26.33
2022-07-25T08:21:01.722Z,26.12
2022-07-25T08:23:28.917Z,26.30
2022-07-25T08:25:55.546Z,26.32
2022-07-25T08:28:21.964Z,26.24
2022-07-25T08:30:48.440Z,26.59
2022-07-25T08:33:16.355Z,26.82
2022-07-25T08:35:46.926Z,27.05
2022-07-25T08:38:14.143Z,27.21
2022-07-25T08:40:40.536Z,27.28
2022-07-25T08:43:10.658Z,27.16
2022-07-25T08:45:39.482Z,26.83
2022-07-25T08:48:06.043Z,26.69
2022-07-25T08:50:32.394Z,27.12
2022-07-25T08:53:30.214Z,27.02
2022-07-25T08:55:46.652Z,27.21
2022-07-25T08:58:14.329Z,27.47
2022-07-25T09:00:41.084Z,27.72
2022-07-25T09:03:08.238Z,27.35
2022-07-25T09:05:37.059Z,27.72
2022-07-25T09:08:14.034Z,27.98
2022-07-25T09:10:45.454Z,27.91
2022-07-25T09:13:16.283Z,28.05
2022-07-25T09:15:48.231Z,27.91
2022-07-25T09:18:17.225Z,27.78
2022-07-25T09:20:45.272Z,27.70
2022-07-25T09:23:13.153Z,27.93
2022-07-25T09:25:39.634Z,28.01
2022-07-25T09:28:13.554Z,28.10
2022-07-25T09:30:41.742Z,28.03
2022-07-25T09:33:08.334Z,28.50
2022-07-25T09:35:40.361Z,28.53
2022-07-25T09:38:16.544Z,28.66
2022-07-25T09:40:53.116Z,28.57
2022-07-25T09:43:19.504Z,28.81
2022-07-25T09:45:49.711Z,28.93
2022-07-25T09:48:18.242Z,29.18
2022-07-25T09:50:44.640Z,29.25
2022-07-25T09:53:11.714Z,29.21
2022-07-25T09:55:38.074Z,29.30
2022-07-25T09:58:04.546Z,28.90
2022-07-25T10:00:31.328Z,29.05
2022-07-25T10:03:18.310Z,29.10
2022-07-25T10:05:58.238Z,29.15
2022-07-25T10:08:25.077Z,29.32
2022-07-25T10:10:51.476Z,29.16
2022-07-25T10:13:29.227Z,29.45
2022-07-25T10:15:55.665Z,29.57
2022-07-25T10:18:23.571Z,29.50
2022-07-25T10:20:51.788Z,29.42
2022-07-25T10:23:22.764Z,29.52
2022-07-25T10:26:04.558Z,29.66
2022-07-25T10:28:38.533Z,29.81
2022-07-25T10:31:14.960Z,29.84
2022-07-25T10:33:42.411Z,30.04
2022-07-25T10:36:10.999Z,29.60
2022-07-25T10:38:39.852Z,29.40
2022-07-25T10:41:08.940Z,29.51
2022-07-25T10:43:39.651Z,29.38
2022-07-25T10:46:12.310Z,29.63
2022-07-25T10:48:39.211Z,29.94
2022-07-25T10:51:09.999Z,29.85
2022-07-25T10:53:39.364Z,30.32
2022-07-25T10:56:07.265Z,30.56
2022-07-25T10:58:53.032Z,30.50
2022-07-25T11:01:24.469Z,30.14
2022-07-25T11:03:51.871Z,30.74
2022-07-25T11:06:29.829Z,30.33
2022-07-25T11:08:57.820Z,29.86
2022-07-25T11:11:48.135Z,30.26
2022-07-25T11:14:20.557Z,30.20
2022-07-25T11:16:48.853Z,31.86
2022-07-25T11:19:18.406Z,32.52
2022-07-25T11:21:49.747Z,32.78
2022-07-25T11:24:16.245Z,33.59
2022-07-25T11:26:50.171Z,32.80
2022-07-25T11:29:20.879Z,32.18
2022-07-25T11:31:54.744Z,31.51
2022-07-25T11:34:23.243Z,31.42
2022-07-25T11:36:50.277Z,31.00
2022-07-25T11:39:19.000Z,31.07
2022-07-25T11:41:45.510Z,31.71
2022-07-25T11:44:11.890Z,32.24
2022-07-25T11:46:42.697Z,33.24
2022-07-25T11:49:09.555Z,33.37
2022-07-25T11:51:37.293Z,32.02
2022-07-25T11:54:10.592Z,32.32
2022-07-25T11:56:43.241Z,31.49
2022-07-25T11:59:10.835Z,30.66
2022-07-25T12:01:39.000Z,30.47
2022-07-25T12:04:18.370Z,29.77
2022-07-25T12:06:46.175Z,29.43
2022-07-25T12:09:19.305Z,29.95
2022-07-25T12:11:46.432Z,30.68
2022-07-25T12:14:13.083Z,32.49
2022-07-25T12:16:39.701Z,32.82
2022-07-25T12:19:09.497Z,34.41
2022-07-25T12:21:36.994Z,34.80
2022-07-25T12:24:03.678Z,34.51
2022-07-25T12:26:30.125Z,33.97
2022-07-25T12:28:56.499Z,32.28
2022-07-25T12:31:24.338Z,32.10
2022-07-25T12:33:51.619Z,30.75
2022-07-25T12:36:18.178Z,30.42
2022-07-25T12:38:44.528Z,30.42
2022-07-25T12:41:15.934Z,30.75
2022-07-25T12:43:44.154Z,30.43
2022-07-25T12:46:10.596Z,30.88
2022-07-25T12:48:37.173Z,30.39
2022-07-25T12:51:03.816Z,30.86
2022-07-25T12:53:30.286Z,30.39
2022-07-25T12:55:56.759Z,29.99
2022-07-25T12:58:23.236Z,29.65
2022-07-25T13:00:49.666Z,29.44
2022-07-25T13:03:16.789Z,29.33
2022-07-25T13:05:43.137Z,29.23
2022-07-25T13:08:09.534Z,29.33
2022-07-25T13:10:35.890Z,29.08
2022-07-25T13:13:02.375Z,29.00
2022-07-25T13:15:30.160Z,28.81
2022-07-25T13:17:56.529Z,29.01
2022-07-25T13:20:23.010Z,30.00
2022-07-25T13:22:49.376Z,29.62
2022-07-25T13:25:15.747Z,28.93
2022-07-25T13:27:42.116Z,28.73
2022-07-25T13:30:08.837Z,28.88
2022-07-25T13:32:35.289Z,28.62
2022-07-25T13:35:01.679Z,27.95
2022-07-25T13:37:28.063Z,27.63
2022-07-25T13:39:54.439Z,27.78
2022-07-25T13:42:20.837Z,27.66
2022-07-25T13:44:47.199Z,28.03
2022-07-25T13:47:13.563Z,28.31
2022-07-25T13:49:41.254Z,29.69
2022-07-25T13:52:07.644Z,30.06
2022-07-25T13:54:34.003Z,30.51
2022-07-25T13:57:01.843Z,29.39
2022-07-25T13:59:28.224Z,28.63
2022-07-25T14:01:54.617Z,26.89
2022-07-25T14:04:21.085Z,26.36
2022-07-25T14:06:51.920Z,24.97
2022-07-25T14:09:21.599Z,25.97
2022-07-25T14:11:48.287Z,25.64
2022-07-25T14:14:14.702Z,26.17
2022-07-25T14:16:41.155Z,28.20
2022-07-25T14:19:08.482Z,28.73
2022-07-25T14:21:35.110Z,30.05
2022-07-25T14:24:01.908Z,29.57
2022-07-25T14:26:28.727Z,28.57
2022-07-25T14:28:55.754Z,27.12
2022-07-25T14:31:22.371Z,26.14
2022-07-25T14:33:48.985Z,25.83
2022-07-25T14:36:15.424Z,25.16
2022-07-25T14:38:41.873Z,24.25
2022-07-25T14:41:12.940Z,23.72
2022-07-25T14:43:40.190Z,23.95
2022-07-25T14:46:07.995Z,23.01
2022-07-25T14:48:35.235Z,22.51
2022-07-25T14:51:02.218Z,21.91
2022-07-25T14:53:28.587Z,20.83
2022-07-25T14:55:54.979Z,19.55
2022-07-25T14:58:21.349Z,19.06
2022-07-25T15:00:47.975Z,18.88
2022-07-25T15:03:15.460Z,18.72
2022-07-25T15:05:41.839Z,18.68
2022-07-25T15:08:08.377Z,18.53
2022-07-25T15:10:34.745Z,18.43
2022-07-25T15:13:29.446Z,18.46
2022-07-25T15:15:47.848Z,18.42
2022-07-25T15:18:14.758Z,18.20
2022-07-25T15:20:41.302Z,18.16
2022-07-25T15:23:07.745Z,18.40
2022-07-25T15:28:20.800Z,18.53
2022-07-25T15:30:51.253Z,18.45
2022-07-25T15:33:20.990Z,18.61
2022-07-25T15:35:47.983Z,18.74
2022-07-25T15:38:15.518Z,18.88
2022-07-25T15:40:43.064Z,18.80
2022-07-25T15:43:09.535Z,19.33
2022-07-25T15:45:39.622Z,19.84
2022-07-25T15:48:07.924Z,20.48
2022-07-25T15:50:35.175Z,20.56
2022-07-25T15:53:01.777Z,20.35
2022-07-25T15:55:28.155Z,20.41
2022-07-25T15:57:54.935Z,20.14
2022-07-25T16:00:24.788Z,19.95
2022-07-25T16:02:54.076Z,19.98
2022-07-25T16:05:21.047Z,20.27
2022-07-25T16:07:47.602Z,20.31
2022-07-25T16:10:14.531Z,20.36
2022-07-25T16:12:41.008Z,20.38
2022-07-25T16:15:07.879Z,20.26
2022-07-25T16:17:34.514Z,20.23
2022-07-25T16:20:00.922Z,20.21
2022-07-25T16:22:27.610Z,19.96
2022-07-25T16:24:53.969Z,20.00
2022-07-25T16:27:20.358Z,20.01
2022-07-25T16:29:46.737Z,20.13
2022-07-25T16:32:13.221Z,20.60
2022-07-25T16:34:39.804Z,20.21
2022-07-25T16:37:06.319Z,20.11
2022-07-25T16:39:32.677Z,19.93
2022-07-25T16:41:59.335Z,20.09
2022-07-25T16:44:25.691Z,20.10
2022-07-25T16:46:52.499Z,20.07
2022-07-25T16:49:20.033Z,20.09
2022-07-25T16:51:46.548Z,20.15
2022-07-25T16:54:13.110Z,20.20
2022-07-25T16:56:39.861Z,20.60
2022-07-25T16:59:07.794Z,20.52
2022-07-25T17:01:35.125Z,20.79
2022-07-25T17:04:02.176Z,20.82
2022-07-25T17:06:28.761Z,20.60
2022-07-25T17:08:55.524Z,20.31
2022-07-25T17:11:22.472Z,20.43
2022-07-25T17:13:48.898Z,20.28
2022-07-25T17:16:15.511Z,20.44
2022-07-25T17:18:42.017Z,20.49
2022-07-25T17:21:09.458Z,20.15
2022-07-25T17:23:35.946Z,20.04
2022-07-25T17:26:05.307Z,20.12
2022-07-25T17:28:32.115Z,21.17
2022-07-25T17:31:01.106Z,21.26
2022-07-25T17:33:28.810Z,20.79
2022-07-25T17:35:55.226Z,20.86
2022-07-25T17:38:26.292Z,20.80
2022-07-25T17:40:54.363Z,20.50
2022-07-25T17:43:20.900Z,20.47
2022-07-25T17:45:47.294Z,20.52
2022-07-25T17:48:13.700Z,21.01
2022-07-25T17:50:42.344Z,21.40
2022-07-25T17:53:09.021Z,21.68
2022-07-25T17:55:38.903Z,21.85
2022-07-25T17:58:05.725Z,21.65
2022-07-25T18:00:32.387Z,21.26
2022-07-25T18:02:59.183Z,21.11
2022-07-25T18:05:25.885Z,21.20
2022-07-25T18:07:53.510Z,21.12
2022-07-25T18:10:21.730Z,21.08
2022-07-25T18:12:48.593Z,21.14
2022-07-25T18:15:15.021Z,21.26
2022-07-25T18:17:42.638Z,21.29
2022-07-25T18:20:09.245Z,20.86
2022-07-25T18:22:38.091Z,21.07
2022-07-25T18:25:05.483Z,20.82
2022-07-25T18:27:31.988Z,20.79
2022-07-25T18:29:58.735Z,20.47
2022-07-25T18:32:25.167Z,20.36
2022-07-25T18:34:51.525Z,20.55
2022-07-25T18:37:17.935Z,20.37
2022-07-25T18:39:44.981Z,20.34
2022-07-25T18:42:11.327Z,20.01
2022-07-25T18:44:37.718Z,19.99
2022-07-25T18:47:04.688Z,20.15
2022-07-25T18:49:31.500Z,19.85
2022-07-25T18:51:57.890Z,19.61
2022-07-25T18:54:24.309Z,19.54
2022-07-25T18:56:50.968Z,19.51
2022-07-25T18:59:17.477Z,19.60
2022-07-25T19:01:43.937Z,19.39
2022-07-25T19:04:10.684Z,19.40
2022-07-25T19:06:37.542Z,19.17
2022-07-25T19:09:03.980Z,19.35
2022-07-25T19:11:30.342Z,19.11
2022-07-25T19:13:57.544Z,19.02
2022-07-25T19:16:24.140Z,18.99
2022-07-25T19:18:50.528Z,18.84
2022-07-25T19:21:17.071Z,18.82
2022-07-25T19:23:49.722Z,18.80
2022-07-25T19:26:17.089Z,18.53
2022-07-25T19:28:44.031Z,18.54
2022-07-25T19:31:10.555Z,18.39
2022-07-25T19:33:37.022Z,18.47
2022-07-25T19:36:04.385Z,18.37
2022-07-25T19:38:30.942Z,18.31
2022-07-25T19:40:57.318Z,18.39
2022-07-25T19:43:23.729Z,18.35
2022-07-25T19:45:50.177Z,18.18
2022-07-25T19:48:17.322Z,17.86
2022-07-25T19:50:43.684Z,17.71
2022-07-25T19:53:10.192Z,17.68
2022-07-25T19:55:36.566Z,17.74
2022-07-25T19:58:03.029Z,17.74
2022-07-25T20:00:29.420Z,17.76
2022-07-25T20:02:55.842Z,17.60
2022-07-25T20:05:22.292Z,17.53
2022-07-25T20:07:48.922Z,17.36
2022-07-25T20:10:17.868Z,17.52
2022-07-25T20:12:44.503Z,17.42
2022-07-25T20:15:10.922Z,17.33
2022-07-25T20:17:37.390Z,17.32
2022-07-25T20:20:04.598Z,17.07
2022-07-25T20:22:35.636Z,16.87
2022-07-25T20:25:02.008Z,16.94
2022-07-25T20:27:28.399Z,16.81
2022-07-25T20:29:54.870Z,16.91
2022-07-25T20:32:21.842Z,17.09
2022-07-25T20:34:48.247Z,16.92
2022-07-25T20:37:14.618Z,17.03
2022-07-25T20:39:41.411Z,16.84
2022-07-25T20:42:08.095Z,16.77
2022-07-25T20:44:34.507Z,16.72
2022-07-25T20:47:00.864Z,16.72
2022-07-25T20:49:27.386Z,16.70
2022-07-25T20:51:54.701Z,16.76
2022-07-25T20:54:21.213Z,16.73
2022-07-25T20:56:47.604Z,16.72
2022-07-25T20:59:14.003Z,16.68
2022-07-25T21:01:40.508Z,16.54
2022-07-25T21:04:07.817Z,16.41
2022-07-25T21:06:34.695Z,16.31
2022-07-25T21:09:03.838Z,16.30
2022-07-25T21:11:30.324Z,16.40
2022-07-25T21:13:57.054Z,16.43
2022-07-25T21:16:23.532Z,16.27
2022-07-25T21:18:49.964Z,16.55
2022-07-25T21:21:16.679Z,16.53
2022-07-25T21:23:43.073Z,16.70
2022-07-25T21:26:10.594Z,16.81
2022-07-25T21:28:37.012Z,16.91
2022-07-25T21:31:03.426Z,16.86
2022-07-25T21:33:29.952Z,16.93
2022-07-25T21:35:56.441Z,16.98
2022-07-25T21:38:27.584Z,16.95
2022-07-25T21:40:55.034Z,16.89
2022-07-25T21:43:21.420Z,17.00
2022-07-25T21:45:48.283Z,17.05
2022-07-25T21:48:14.978Z,17.28
2022-07-25T21:50:44.024Z,17.13
2022-07-25T21:53:13.648Z,17.06
2022-07-25T21:55:40.619Z,17.05
2022-07-25T21:58:07.513Z,16.93
2022-07-25T22:00:37.672Z,17.22
2022-07-25T22:03:07.826Z,17.19
2022-07-25T22:05:34.249Z,17.24
2022-07-25T22:08:00.614Z,17.12
2022-07-25T22:10:27.031Z,17.15
2022-07-25T22:12:53.549Z,17.13
2022-07-25T22:15:19.997Z,17.06
2022-07-25T22:17:49.703Z,16.87
2022-07-25T22:20:17.459Z,17.07
2022-07-25T22:22:43.827Z,16.89
2022-07-25T22:25:10.226Z,16.99
2022-07-25T22:27:36.690Z,16.95
2022-07-25T22:30:03.667Z,16.85
2022-07-25T22:32:30.098Z,16.86
2022-07-25T22:34:56.446Z,16.64
2022-07-25T22:37:22.792Z,16.76
2022-07-25T22:39:49.266Z,16.63
2022-07-25T22:42:16.283Z,16.64
2022-07-25T22:44:42.935Z,16.66
2022-07-25T22:47:09.358Z,16.68
2022-07-25T22:49:35.750Z,16.55
2022-07-25T22:52:02.124Z,16.47
2022-07-25T22:54:28.475Z,16.60
2022-07-25T22:56:54.864Z,16.38
2022-07-25T22:59:21.269Z,16.51
2022-07-25T23:01:47.649Z,16.45
2022-07-25T23:04:14.142Z,16.45
2022-07-25T23:06:40.665Z,16.42
2022-07-25T23:09:07.282Z,16.48
2022-07-25T23:11:33.966Z,16.26
2022-07-25T23:14:00.394Z,16.45
2022-07-25T23:16:27.634Z,16.24
2022-07-25T23:18:55.556Z,16.28
2022-07-25T23:21:21.909Z,16.46
2022-07-25T23:23:48.273Z,16.42
2022-07-25T23:26:15.031Z,16.59
2022-07-25T23:28:41.457Z,16.28
2022-07-25T23:31:07.855Z,16.27
2022-07-25T23:33:34.563Z,16.26
2022-07-25T23:36:00.977Z,16.26
2022-07-25T23:38:27.534Z,16.26
2022-07-25T23:40:54.854Z,16.32
2022-07-25T23:43:38.611Z,16.47
2022-07-25T23:46:07.639Z,16.34
2022-07-25T23:48:34.505Z,16.50
2022-07-25T23:51:01.120Z,16.54
2022-07-25T23:53:27.477Z,16.32
2022-07-25T23:55:53.980Z,16.50
2022-07-25T23:58:20.338Z,16.71
